Time;durP1;ratioP1;P1;durP2;ratioP2;P2;SDS_P1;SDS_P2;PMS_P1;PMS_P2;Temp;Humidity;BMP_temperature;BMP_pressure;BME280_temperature;BME280_humidity;BME280_pressure;Samples;Min_cycle;Max_cycle;Signal;HPM_P1;HPM_P2
2022/04/26 03:36:51;;;;;;;34.73;20.77;;;;;;;3.78;86.73;100752.16;4950573;29;20244;-71
2022/04/26 03:39:18;;;;;;;33.63;20.10;;;;;;;3.78;86.42;100741.59;4981391;28;20466;-72
2022/04/26 03:41:44;;;;;;;30.17;18.83;;;;;;;3.78;86.22;100749.50;4980183;28;20234;-70
2022/04/26 03:44:11;;;;;;;28.63;18.63;;;;;;;3.72;86.45;100750.59;4979424;28;20239;-70
2022/04/26 03:46:37;;;;;;;33.40;19.13;;;;;;;3.70;86.50;100765.59;4975768;28;20673;-70
2022/04/26 03:49:05;;;;;;;30.60;18.73;;;;;;;3.68;86.19;100756.00;4976214;28;20240;-71
2022/04/26 03:51:32;;;;;;;30.50;18.80;;;;;;;3.67;86.63;100756.94;4978430;28;20671;-71
2022/04/26 03:53:58;;;;;;;30.70;19.67;;;;;;;3.67;86.73;100759.56;4981754;28;20231;-71
2022/04/26 03:56:25;;;;;;;35.60;20.90;;;;;;;3.66;86.54;100755.19;4987009;28;20218;-70
2022/04/26 03:58:51;;;;;;;36.47;20.23;;;;;;;3.64;86.36;100763.16;4979362;28;20244;-71
2022/04/26 04:01:18;;;;;;;32.57;20.33;;;;;;;3.61;86.02;100754.47;4976690;28;20239;-71
2022/04/26 04:03:45;;;;;;;30.67;18.57;;;;;;;3.57;86.29;100758.16;4981591;28;20208;-70
2022/04/26 04:06:13;;;;;;;29.83;19.17;;;;;;;3.53;85.89;100760.03;4976649;28;20204;-71
2022/04/26 04:08:40;;;;;;;32.63;20.23;;;;;;;3.49;85.92;100763.66;4981985;28;20258;-70
2022/04/26 04:11:06;;;;;;;38.20;20.07;;;;;;;3.46;86.32;100759.34;4979812;28;20200;-71
2022/04/26 04:13:33;;;;;;;32.60;19.97;;;;;;;3.42;85.94;100762.97;4982439;28;20602;-72
2022/04/26 04:15:59;;;;;;;35.77;19.20;;;;;;;3.34;85.38;100759.75;4980105;28;20211;-70
2022/04/26 04:21:10;;;;;;;31.73;19.43;;;;;;;3.28;85.64;100764.34;4976914;28;20766;-70
2022/04/26 04:23:38;;;;;;;31.77;19.40;;;;;;;3.27;85.74;100768.75;4983671;28;20293;-72
2022/04/26 04:26:05;;;;;;;32.30;18.30;;;;;;;3.25;85.96;100767.91;4985960;28;20215;-70
2022/04/26 04:28:33;;;;;;;33.27;18.90;;;;;;;3.23;85.96;100766.25;4984727;28;20224;-72
2022/04/26 04:31:00;;;;;;;32.60;19.43;;;;;;;3.21;85.97;100762.81;4983714;28;20223;-71
2022/04/26 04:33:26;;;;;;;30.50;19.03;;;;;;;3.20;86.31;100761.09;4981651;28;20294;-70
2022/04/26 04:35:53;;;;;;;28.40;18.40;;;;;;;3.18;86.98;100757.66;4980452;28;20208;-70
2022/04/26 04:38:20;;;;;;;30.40;19.27;;;;;;;3.15;86.80;100763.88;4978670;28;20235;-71
2022/04/26 04:40:48;;;;;;;30.53;18.10;;;;;;;3.14;86.35;100759.50;4975924;28;20232;-70
2022/04/26 04:43:14;;;;;;;30.10;18.13;;;;;;;3.12;87.08;100774.50;4989404;28;20216;-71
2022/04/26 04:45:41;;;;;;;31.40;19.07;;;;;;;3.11;87.34;100767.50;4985913;28;20218;-72
2022/04/26 04:48:09;;;;;;;28.00;18.77;;;;;;;3.12;87.56;100769.22;4987660;28;20239;-71
2022/04/26 04:50:36;;;;;;;28.60;18.40;;;;;;;3.16;87.63;100780.53;4989862;28;20309;-73
2022/04/26 04:53:02;;;;;;;31.73;18.70;;;;;;;3.16;87.21;100778.75;4988924;28;20207;-71
2022/04/26 04:55:29;;;;;;;31.90;18.27;;;;;;;3.15;87.28;100774.41;4982157;28;20199;-71
2022/04/26 04:57:57;;;;;;;27.90;17.90;;;;;;;3.15;87.74;100779.66;4988631;28;20665;-73
2022/04/26 05:00:24;;;;;;;29.57;18.10;;;;;;;3.14;86.94;100781.44;4985630;28;20211;-71
2022/04/26 05:02:50;;;;;;;29.17;18.47;;;;;;;3.12;87.40;100785.88;4983721;28;20207;-71
2022/04/26 05:05:17;;;;;;;27.27;18.07;;;;;;;3.13;87.35;100789.38;4986497;28;20212;-73
2022/04/26 05:07:43;;;;;;;28.73;18.60;;;;;;;3.15;88.25;100795.44;4979771;28;20200;-68
2022/04/26 05:10:10;;;;;;;31.23;17.43;;;;;;;3.18;88.50;100787.47;4982173;28;20227;-70
2022/04/26 05:12:36;;;;;;;26.30;18.03;;;;;;;3.21;88.05;100790.00;4983051;28;20580;-71
2022/04/26 05:15:05;;;;;;;27.20;17.60;;;;;;;3.26;88.78;100792.47;4982378;28;20211;-70
2022/04/26 05:17:32;;;;;;;23.93;16.60;;;;;;;3.31;88.55;100793.19;4980229;28;20227;-72
2022/04/26 05:19:59;;;;;;;29.03;19.30;;;;;;;3.37;88.88;100790.38;4976912;28;20223;-70
2022/04/26 05:22:25;;;;;;;29.40;19.13;;;;;;;3.43;88.96;100791.03;4979083;28;20838;-70
2022/04/26 05:24:54;;;;;;;27.37;17.60;;;;;;;3.51;89.64;100789.94;4980342;28;20207;-71
2022/04/26 05:27:21;;;;;;;24.30;17.10;;;;;;;3.59;89.39;100798.44;4980040;28;20749;-70
2022/04/26 05:29:48;;;;;;;28.10;17.40;;;;;;;3.67;90.06;100799.06;4984118;28;20732;-71
2022/04/26 05:32:19;;;;;;;26.27;17.33;;;;;;;3.77;90.23;100800.47;4982768;28;20200;-70
2022/04/26 05:34:46;;;;;;;32.03;19.30;;;;;;;3.86;90.98;100784.38;4983387;28;20211;-71
2022/04/26 05:37:12;;;;;;;26.37;18.13;;;;;;;3.96;91.03;100803.34;4982977;28;20212;-70
2022/04/26 05:39:39;;;;;;;28.10;19.17;;;;;;;4.06;91.70;100797.75;4978434;28;20236;-70
2022/04/26 05:42:05;;;;;;;29.23;17.83;;;;;;;4.16;91.80;100804.41;4977979;28;20223;-70
2022/04/26 05:44:32;;;;;;;29.60;19.07;;;;;;;4.27;92.03;100796.13;4981844;28;20209;-68
2022/04/26 05:46:58;;;;;;;27.53;17.77;;;;;;;4.41;92.43;100803.56;4976650;28;20209;-72
2022/04/26 05:49:26;;;;;;;25.17;17.67;;;;;;;4.52;92.81;100802.25;4988698;28;20223;-71
2022/04/26 05:51:53;;;;;;;25.30;17.40;;;;;;;4.64;92.36;100793.03;4983713;28;20701;-70
2022/04/26 05:54:19;;;;;;;24.73;17.03;;;;;;;4.76;93.12;100804.91;4980163;28;20208;-70
2022/04/26 05:56:46;;;;;;;23.10;17.80;;;;;;;4.86;92.80;100793.94;4986880;28;20200;-71
2022/04/26 05:59:12;;;;;;;25.17;17.73;;;;;;;4.99;93.32;100794.38;4980244;28;20232;-70
2022/04/26 06:01:39;;;;;;;26.90;17.77;;;;;;;5.10;93.10;100793.94;4976602;28;20236;-70
2022/04/26 06:04:05;;;;;;;21.90;16.70;;;;;;;5.18;92.71;100795.38;4989205;28;20208;-70
2022/04/26 06:06:35;;;;;;;24.00;16.87;;;;;;;5.27;92.94;100794.16;4981981;28;20205;-69
2022/04/26 06:09:01;;;;;;;21.00;15.90;;;;;;;5.32;92.99;100788.69;4977562;28;20598;-70
2022/04/26 06:11:28;;;;;;;24.23;17.13;;;;;;;5.39;92.94;100798.06;4985711;28;20200;-70
2022/04/26 06:13:54;;;;;;;23.20;17.17;;;;;;;5.44;92.59;100799.63;4986586;28;20211;-71
2022/04/26 06:16:21;;;;;;;21.90;16.57;;;;;;;5.50;92.58;100793.25;4982105;28;20215;-69
2022/04/26 06:18:47;;;;;;;23.83;17.50;;;;;;;5.55;92.74;100794.75;4980438;28;20230;-70
2022/04/26 06:21:14;;;;;;;25.93;18.77;;;;;;;5.63;92.52;100801.53;4989070;28;20231;-71
2022/04/26 06:23:42;;;;;;;24.40;18.03;;;;;;;5.70;92.43;100797.72;4976913;28;20591;-72
2022/04/26 06:26:09;;;;;;;22.83;17.07;;;;;;;5.76;92.83;100806.25;4983078;28;20204;-71
2022/04/26 06:28:36;;;;;;;22.37;17.20;;;;;;;5.83;92.51;100810.38;4986878;28;20223;-70
2022/04/26 06:31:02;;;;;;;24.03;17.00;;;;;;;5.88;92.71;100799.59;4977275;28;20197;-71
2022/04/26 06:33:29;;;;;;;24.37;17.40;;;;;;;5.93;92.68;100806.44;4981923;28;20217;-70
2022/04/26 06:35:55;;;;;;;23.73;17.97;;;;;;;5.97;92.35;100808.97;4979889;28;20701;-71
2022/04/26 06:38:23;;;;;;;22.83;17.73;;;;;;;5.99;92.08;100807.97;5005953;23;20387;-73
2022/04/26 06:40:51;;;;;;;26.13;18.40;;;;;;;6.03;92.20;100812.22;4953790;28;20243;-73
2022/04/26 06:43:18;;;;;;;24.17;17.40;;;;;;;6.07;92.35;100805.88;4958732;28;20204;-73
2022/04/26 06:45:46;;;;;;;23.77;18.30;;;;;;;6.17;92.19;100811.63;4947070;28;20603;-73
2022/04/26 06:48:14;;;;;;;26.47;18.43;;;;;;;6.28;92.33;100814.66;4950052;28;20224;-73
2022/04/26 06:50:41;;;;;;;25.97;17.77;;;;;;;6.39;92.76;100812.44;4937828;28;20209;-73
2022/04/26 06:53:08;;;;;;;25.63;18.47;;;;;;;6.49;92.69;100816.38;4947929;29;20204;-73
2022/04/26 06:55:35;;;;;;;24.37;17.77;;;;;;;6.62;92.96;100814.06;4930363;29;20604;-73
2022/04/26 06:58:03;;;;;;;29.80;20.30;;;;;;;6.77;92.83;100812.53;4930675;29;20249;-73
2022/04/26 07:00:30;;;;;;;31.03;20.23;;;;;;;6.92;92.83;100811.81;4935188;29;20221;-73
2022/04/26 07:02:56;;;;;;;25.47;18.73;;;;;;;7.07;93.33;100811.13;4930458;29;20226;-73
2022/04/26 07:05:23;;;;;;;29.57;20.43;;;;;;;7.24;93.36;100810.31;4923518;29;20213;-73
2022/04/26 07:07:51;;;;;;;32.47;20.90;;;;;;;7.41;93.07;100809.53;4921994;29;20209;-73
2022/04/26 07:10:17;;;;;;;33.13;22.03;;;;;;;7.57;93.07;100807.84;4925033;29;20614;-72
2022/04/26 07:12:44;;;;;;;30.37;20.10;;;;;;;7.72;92.94;100814.19;4924814;29;20671;-74
2022/04/26 07:15:12;;;;;;;34.47;21.93;;;;;;;7.86;92.49;100814.41;4921471;29;20489;-74
2022/04/26 07:17:39;;;;;;;29.63;21.40;;;;;;;7.99;92.78;100807.53;4924946;29;20209;-73
2022/04/26 07:20:08;;;;;;;31.37;22.07;;;;;;;8.15;92.11;100813.78;4926483;29;20288;-73
2022/04/26 07:22:34;;;;;;;36.27;23.37;;;;;;;8.29;92.42;100816.59;4927522;29;20268;-72
2022/04/26 07:25:01;;;;;;;36.70;23.57;;;;;;;8.42;92.07;100818.66;4930647;29;20202;-73
2022/04/26 07:27:28;;;;;;;33.40;22.80;;;;;;;8.54;91.73;100818.88;4924870;29;20650;-73
2022/04/26 07:29:55;;;;;;;35.03;22.97;;;;;;;8.68;91.08;100818.16;4937874;29;20229;-74
2022/04/26 07:34:20;;;;;;;35.57;22.70;;;;;;;8.80;90.85;100817.50;4934360;29;20507;-74
2022/04/26 07:35:10;;;;;;;33.30;21.80;;;;;;;8.94;90.72;100820.28;4941695;28;20308;-72
2022/04/26 07:37:37;;;;;;;33.33;22.57;;;;;;;9.05;90.54;100820.56;4925919;29;20209;-72
2022/04/26 07:40:04;;;;;;;32.13;23.17;;;;;;;9.18;89.99;100827.84;4928833;29;20488;-74
2022/04/26 07:42:30;;;;;;;32.37;23.07;;;;;;;9.33;90.02;100832.31;4927903;29;20229;-74
2022/04/26 07:44:57;;;;;;;34.00;22.53;;;;;;;9.48;89.36;100831.50;4926119;29;20229;-73
2022/04/26 07:47:26;;;;;;;39.40;25.27;;;;;;;9.61;88.74;100832.50;4925058;29;20203;-73
2022/04/26 07:49:53;;;;;;;44.23;26.37;;;;;;;9.74;88.72;100828.19;4926880;29;20256;-74
2022/04/26 07:52:20;;;;;;;52.43;28.87;;;;;;;9.89;87.84;100825.59;4921341;29;20614;-74
2022/04/26 07:54:47;;;;;;;49.10;28.30;;;;;;;10.01;86.23;100831.09;4927755;29;20214;-74
2022/04/26 07:57:14;;;;;;;46.63;27.83;;;;;;;10.13;85.73;100821.53;4923562;29;20213;-73
2022/04/26 07:59:41;;;;;;;49.50;29.93;;;;;;;10.28;85.02;100827.78;4923574;29;20226;-74
2022/04/26 08:02:08;;;;;;;45.17;28.53;;;;;;;10.42;84.36;100827.81;4930288;29;20237;-73
2022/04/26 08:04:35;;;;;;;44.67;26.90;;;;;;;10.57;83.32;100837.53;4926097;28;20214;-73
2022/04/26 08:07:02;;;;;;;44.37;27.17;;;;;;;10.72;83.85;100836.63;4931744;29;20209;-73
2022/04/26 08:09:29;;;;;;;45.47;27.97;;;;;;;10.93;83.68;100830.91;4927369;29;20222;-74
2022/04/26 08:11:56;;;;;;;42.33;28.33;;;;;;;11.11;82.96;100843.09;4929535;29;20202;-73
2022/04/26 08:14:22;;;;;;;39.00;26.20;;;;;;;11.27;82.50;100835.88;4931782;29;20218;-74
2022/04/26 08:16:48;;;;;;;38.07;24.97;;;;;;;11.43;81.57;100838.41;4931262;29;20211;-74
2022/04/26 08:19:15;;;;;;;42.37;27.10;;;;;;;11.57;80.99;100843.72;4931330;29;20225;-74
2022/04/26 08:21:43;;;;;;;40.10;25.80;;;;;;;11.73;80.18;100841.75;4929177;29;20232;-74
2022/04/26 08:29:38;;;;;;;39.00;25.83;;;;;;;12.22;78.16;100833.22;4929340;29;20240;-71
2022/04/26 08:32:05;;;;;;;38.73;25.60;;;;;;;12.35;77.19;100836.78;4931228;29;20213;-75
2022/04/26 08:34:32;;;;;;;36.07;24.97;;;;;;;12.52;76.61;100839.16;4932652;29;20209;-74
2022/04/26 08:37:00;;;;;;;39.80;25.77;;;;;;;12.67;76.04;100841.72;4928110;29;20591;-75
2022/04/26 08:39:27;;;;;;;35.50;24.50;;;;;;;12.79;74.98;100847.06;4933623;29;20233;-74
2022/04/26 08:41:58;;;;;;;38.87;25.53;;;;;;;12.93;74.72;100847.94;4932548;29;20258;-74
2022/04/26 08:44:27;;;;;;;33.70;25.00;;;;;;;13.08;73.68;100854.88;4927714;29;20209;-74
2022/04/26 08:52:24;;;;;;;32.47;22.93;;;;;;;13.53;72.57;100866.81;4925420;29;20208;-73
2022/04/26 08:54:50;;;;;;;29.13;21.00;;;;;;;13.71;72.03;100865.50;4931917;29;20206;-75
2022/04/26 08:57:17;;;;;;;30.47;21.60;;;;;;;13.87;70.83;100863.41;4931210;29;20212;-74
2022/04/26 08:59:47;;;;;;;27.67;20.33;;;;;;;14.01;69.79;100866.88;4930550;29;20222;-74
2022/04/26 09:02:16;;;;;;;28.07;20.00;;;;;;;14.12;69.29;100861.59;4933461;29;20726;-75
2022/04/26 09:04:43;;;;;;;25.87;19.67;;;;;;;14.27;68.83;100855.09;4932399;29;20236;-75
2022/04/26 09:07:12;;;;;;;27.93;19.87;;;;;;;14.41;67.96;100867.47;4932024;29;20205;-74
2022/04/26 09:09:40;;;;;;;23.77;19.50;;;;;;;14.51;67.19;100863.13;4929313;29;20233;-72
2022/04/26 09:12:11;;;;;;;28.10;20.93;;;;;;;14.63;67.14;100864.00;4925930;29;20892;-75
2022/04/26 09:14:47;;;;;;;24.70;19.60;;;;;;;14.76;66.81;100864.75;4927642;29;20221;-72
2022/04/26 09:17:16;;;;;;;24.23;19.63;;;;;;;14.87;65.92;100865.63;4933233;28;20213;-74
2022/04/26 09:19:47;;;;;;;25.20;18.23;;;;;;;15.00;65.80;100864.69;4932513;29;20645;-75
2022/04/26 09:22:18;;;;;;;25.97;18.83;;;;;;;15.13;64.94;100868.09;4929144;28;20718;-75
2022/04/26 09:24:58;;;;;;;22.43;17.13;;;;;;;15.22;64.01;100870.94;4927850;29;20214;-74
2022/04/26 09:27:26;;;;;;;24.40;18.23;;;;;;;15.34;63.24;100873.59;4931793;29;20217;-75
2022/04/26 09:29:52;;;;;;;19.97;17.10;;;;;;;15.46;62.77;100867.25;4925979;29;20250;-75
2022/04/26 09:32:19;;;;;;;22.80;18.00;;;;;;;15.54;61.97;100867.50;4934498;29;20211;-73
2022/04/26 09:34:46;;;;;;;24.67;16.97;;;;;;;15.60;61.73;100862.50;4932048;29;20210;-75
2022/04/26 09:37:13;;;;;;;16.57;14.83;;;;;;;15.70;61.55;100859.94;4933929;28;20229;-75
2022/04/26 09:39:41;;;;;;;16.97;14.63;;;;;;;15.85;60.63;100869.44;4929539;29;20232;-72
2022/04/26 09:42:09;;;;;;;19.23;14.90;;;;;;;15.96;59.33;100861.31;4932299;29;20234;-75
2022/04/26 09:44:40;;;;;;;16.43;14.13;;;;;;;16.08;59.55;100864.84;4929096;29;20688;-74
2022/04/26 09:47:07;;;;;;;23.57;16.80;;;;;;;16.22;58.63;100856.50;4944469;28;20211;-75
2022/04/26 09:49:37;;;;;;;18.77;14.37;;;;;;;16.35;58.70;100864.38;4925598;29;20233;-75
2022/04/26 09:52:06;;;;;;;17.00;15.13;;;;;;;16.40;57.32;100867.53;4926613;29;20212;-74
2022/04/26 09:54:34;;;;;;;13.57;12.07;;;;;;;16.39;56.36;100867.66;4925258;29;20207;-75
2022/04/26 09:57:02;;;;;;;13.33;11.07;;;;;;;16.32;55.09;100868.16;4929187;29;20258;-74
2022/04/26 09:59:37;;;;;;;11.90;10.30;;;;;;;16.30;54.68;100870.13;4931535;29;20597;-75
2022/04/26 10:02:07;;;;;;;14.27;11.27;;;;;;;16.35;54.87;100872.44;4931020;29;20251;-74
2022/04/26 10:04:38;;;;;;;10.60;9.50;;;;;;;16.47;54.89;100865.19;4924575;29;20238;-74
2022/04/26 10:07:07;;;;;;;10.47;8.57;;;;;;;16.59;53.45;100867.69;4931173;29;20220;-75
2022/04/26 10:09:34;;;;;;;12.07;9.03;;;;;;;16.71;52.95;100867.63;4927458;29;20229;-75
2022/04/26 10:12:03;;;;;;;11.23;9.33;;;;;;;16.78;52.25;100874.22;4929820;29;20387;-74
2022/04/26 10:14:33;;;;;;;10.53;9.13;;;;;;;16.81;51.27;100863.19;4930878;29;20683;-75
2022/04/26 10:17:00;;;;;;;11.47;10.30;;;;;;;16.87;51.20;100870.72;4930913;29;20671;-74
2022/04/26 10:19:37;;;;;;;10.80;9.53;;;;;;;16.97;51.33;100866.25;4950294;28;20226;-74
2022/04/26 10:22:04;;;;;;;10.17;8.53;;;;;;;17.08;50.58;100865.31;4946864;28;20426;-74
2022/04/26 10:24:31;;;;;;;10.50;9.03;;;;;;;17.11;50.03;100868.59;4949664;28;20248;-75
2022/04/26 10:27:18;;;;;;;8.90;8.00;;;;;;;17.11;49.45;100871.28;4937370;29;20209;-74
2022/04/26 10:29:47;;;;;;;12.00;8.17;;;;;;;17.05;48.43;100868.28;4931610;29;20324;-74
2022/04/26 10:32:29;;;;;;;10.03;8.87;;;;;;;17.04;49.04;100862.03;4931437;29;20304;-75
2022/04/26 10:34:56;;;;;;;9.60;8.57;;;;;;;17.12;49.12;100866.75;4931414;29;20298;-74
2022/04/26 10:37:33;;;;;;;9.93;8.93;;;;;;;17.31;49.69;100866.84;4922923;29;20270;-75
2022/04/26 10:40:01;;;;;;;11.73;9.50;;;;;;;17.43;48.81;100867.59;4923555;29;20234;-74
2022/04/26 10:42:31;;;;;;;11.80;9.53;;;;;;;17.49;47.84;100864.38;4941079;28;20259;-75
2022/04/26 10:45:06;;;;;;;11.80;10.30;;;;;;;17.46;47.33;100865.50;4938721;28;20206;-75
2022/04/26 10:47:33;;;;;;;10.63;8.30;;;;;;;17.43;46.84;100864.91;4924823;29;20204;-74
2022/04/26 10:50:00;;;;;;;9.00;8.10;;;;;;;17.39;46.19;100861.63;4925719;29;20232;-75
2022/04/26 10:52:35;;;;;;;9.80;8.77;;;;;;;17.37;46.31;100865.47;4927807;29;20695;-74
2022/04/26 10:55:03;;;;;;;11.00;9.40;;;;;;;17.35;46.33;100865.59;4931285;29;20218;-74
2022/04/26 10:57:31;;;;;;;10.83;9.17;;;;;;;17.38;46.14;100865.31;4941683;28;20367;-75
2022/04/26 11:00:01;;;;;;;9.93;8.90;;;;;;;17.38;45.93;100868.00;4950088;29;20234;-75
2022/04/26 11:02:31;;;;;;;9.77;8.77;;;;;;;17.39;46.35;100876.94;4942345;29;20614;-74
2022/04/26 11:04:59;;;;;;;10.93;9.13;;;;;;;17.42;46.53;100871.28;4926803;29;20309;-74
2022/04/26 11:07:27;;;;;;;10.07;9.07;;;;;;;17.44;46.15;100875.56;4927624;29;20238;-74
2022/04/26 11:09:55;;;;;;;10.07;9.17;;;;;;;17.39;45.79;100869.72;4925743;28;20237;-73
2022/04/26 11:12:23;;;;;;;10.20;9.20;;;;;;;17.32;45.89;100865.88;4930320;29;20206;-73
2022/04/26 11:14:53;;;;;;;10.87;9.17;;;;;;;17.32;46.14;100874.81;4927404;29;20204;-75
2022/04/26 11:17:23;;;;;;;9.50;8.60;;;;;;;17.36;46.34;100875.38;4927184;29;20594;-74
2022/04/26 11:19:50;;;;;;;9.60;8.70;;;;;;;17.41;46.18;100873.13;4931863;29;20330;-73
2022/04/26 11:22:18;;;;;;;10.20;9.23;;;;;;;17.46;46.16;100875.41;4930256;29;20210;-73
2022/04/26 11:30:25;;;;;;;10.93;9.30;;;;;;;17.50;45.69;100871.47;4930157;29;20743;-74
2022/04/26 11:32:57;;;;;;;10.77;9.43;;;;;;;17.46;45.45;100872.72;4929035;29;20202;-74
2022/04/26 11:35:24;;;;;;;11.90;10.33;;;;;;;17.44;45.42;100882.78;4938002;28;20209;-75
2022/04/26 11:37:53;;;;;;;10.63;9.00;;;;;;;17.51;45.98;100867.78;4953429;28;20212;-75
2022/04/26 11:40:24;;;;;;;10.37;9.30;;;;;;;17.60;45.44;100877.72;4953450;29;20240;-73
2022/04/26 11:42:51;;;;;;;9.93;8.90;;;;;;;17.63;44.86;100872.06;4953734;29;20245;-75
2022/04/26 11:45:18;;;;;;;8.60;7.40;;;;;;;17.63;44.30;100877.47;4954407;28;20211;-75
2022/04/26 11:47:48;;;;;;;7.80;6.77;;;;;;;17.64;44.07;100879.19;4953759;29;20297;-74
2022/04/26 11:50:18;;;;;;;7.93;7.07;;;;;;;17.65;43.66;100870.97;4954175;28;20248;-74
2022/04/26 11:52:46;;;;;;;8.20;7.47;;;;;;;17.71;43.71;100874.97;4953940;29;20236;-75
2022/04/26 11:55:29;;;;;;;8.97;7.47;;;;;;;17.72;42.87;100876.69;4953055;28;20213;-75
2022/04/26 11:58:07;;;;;;;7.57;6.87;;;;;;;17.70;42.72;100873.28;4953287;29;20217;-75
2022/04/26 12:00:34;;;;;;;8.80;8.00;;;;;;;17.68;42.98;100876.09;4933971;29;20224;-74
2022/04/26 12:03:02;;;;;;;8.97;7.70;;;;;;;17.66;43.25;100871.84;4932380;28;20229;-74
2022/04/26 12:05:35;;;;;;;8.93;8.10;;;;;;;17.65;43.56;100875.53;4942894;29;20216;-75
2022/04/26 12:08:02;;;;;;;11.83;7.47;;;;;;;17.68;44.13;100886.88;4933784;29;20572;-74
2022/04/26 12:10:32;;;;;;;9.00;6.73;;;;;;;17.71;44.08;100885.75;4947222;29;20228;-75
2022/04/26 12:13:01;;;;;;;7.77;6.97;;;;;;;17.72;43.89;100881.22;4933279;29;20283;-74
2022/04/26 12:15:30;;;;;;;6.90;6.20;;;;;;;17.73;44.22;100883.78;4930437;29;20212;-75
2022/04/26 12:18:08;;;;;;;7.10;6.43;;;;;;;17.76;43.89;100883.47;4933726;29;20236;-72
2022/04/26 12:20:55;;;;;;;7.80;6.47;;;;;;;17.76;44.03;100885.31;4946534;29;20240;-75
2022/04/26 12:23:23;;;;;;;7.40;6.70;;;;;;;17.68;44.05;100886.88;4952550;29;20249;-73
2022/04/26 12:25:57;;;;;;;7.20;6.60;;;;;;;17.63;44.15;100881.00;4948163;28;20207;-75
2022/04/26 12:28:25;;;;;;;8.17;7.27;;;;;;;17.62;44.14;100886.53;4933339;29;20216;-74
2022/04/26 12:30:52;;;;;;;8.07;6.90;;;;;;;17.62;45.06;100882.00;4933576;29;20212;-74
2022/04/26 12:33:30;;;;;;;8.23;7.43;;;;;;;17.63;46.26;100886.41;4933545;29;20207;-74
2022/04/26 12:36:04;;;;;;;9.47;8.57;;;;;;;17.50;47.33;100883.09;4933949;29;20206;-73
2022/04/26 12:41:06;;;;;;;9.70;8.63;;;;;;;17.31;48.35;100899.16;5006741;23;20249;-73
2022/04/26 12:43:34;;;;;;;8.90;7.77;;;;;;;17.25;48.70;100889.78;4990729;28;20232;-74
2022/04/26 12:46:03;;;;;;;8.37;7.57;;;;;;;17.17;48.87;100892.31;4991532;28;20214;-73
2022/04/26 12:51:27;;;;;;;9.37;8.37;;;;;;;17.07;49.11;100902.13;4972923;28;20219;-73
2022/04/26 12:53:54;;;;;;;10.93;8.23;;;;;;;16.98;48.83;100911.03;4975140;28;20712;-73
2022/04/26 12:56:21;;;;;;;9.63;8.63;;;;;;;16.83;49.63;100909.66;4969714;28;20225;-72
2022/04/26 12:58:50;;;;;;;8.73;7.80;;;;;;;16.68;50.28;100909.09;4974501;28;20208;-72
2022/04/26 13:01:18;;;;;;;7.33;6.63;;;;;;;16.49;50.06;100912.44;4961874;28;20690;-74
2022/04/26 13:03:46;;;;;;;7.23;6.50;;;;;;;16.26;50.56;100916.22;4967151;28;20227;-73
2022/04/26 13:06:15;;;;;;;7.00;6.40;;;;;;;16.05;51.43;100912.59;4967056;28;20218;-73
2022/04/26 13:08:44;;;;;;;8.03;7.20;;;;;;;15.85;51.52;100917.75;4966067;28;20295;-72
2022/04/26 13:11:11;;;;;;;7.87;7.07;;;;;;;15.65;51.45;100914.97;4966675;28;20236;-72
2022/04/26 13:13:40;;;;;;;7.83;6.57;;;;;;;15.46;52.15;100918.25;4964129;28;20206;-73
2022/04/26 13:16:07;;;;;;;6.37;5.63;;;;;;;15.26;53.01;100920.66;4958941;28;20724;-74
2022/04/26 13:18:34;;;;;;;5.40;4.90;;;;;;;15.13;53.48;100919.94;4952898;28;20215;-72
2022/04/26 13:21:01;;;;;;;6.23;5.27;;;;;;;15.03;54.43;100918.09;4962624;28;20233;-72
2022/04/26 13:23:30;;;;;;;5.00;4.60;;;;;;;14.93;54.70;100924.16;4959512;28;20603;-72
2022/04/26 13:25:58;;;;;;;5.73;5.00;;;;;;;14.84;54.61;100924.88;4965151;28;20234;-72
2022/04/26 13:28:25;;;;;;;5.57;4.93;;;;;;;14.71;54.98;100926.75;4965682;28;20231;-71
2022/04/26 13:30:52;;;;;;;6.03;4.90;;;;;;;14.63;55.11;100920.28;4960908;28;20224;-73
2022/04/26 13:33:18;;;;;;;6.20;4.93;;;;;;;14.54;55.35;100928.03;4970229;28;20212;-72
2022/04/26 13:35:45;;;;;;;6.10;5.37;;;;;;;14.51;55.46;100920.22;4969347;28;20556;-73
2022/04/26 13:38:13;;;;;;;6.50;5.20;;;;;;;14.51;55.60;100914.03;4975397;28;20296;-74
2022/04/26 13:40:41;;;;;;;4.97;4.47;;;;;;;14.51;55.46;100920.22;4979664;28;20231;-72
2022/04/26 13:43:10;;;;;;;4.07;3.73;;;;;;;14.49;55.22;100914.16;4990206;28;20243;-72
2022/04/26 13:45:38;;;;;;;4.87;4.47;;;;;;;14.47;54.72;100917.91;4990151;28;20208;-72
2022/04/26 13:48:09;;;;;;;5.07;4.47;;;;;;;14.47;54.78;100912.56;4979429;28;20231;-72
2022/04/26 13:50:36;;;;;;;5.60;4.17;;;;;;;14.47;54.45;100917.91;4970925;28;20228;-72
2022/04/26 13:53:03;;;;;;;5.10;4.60;;;;;;;14.49;54.85;100919.53;4978428;28;20211;-72
2022/04/26 13:55:30;;;;;;;4.20;3.80;;;;;;;14.51;54.35;100914.03;4984076;28;20208;-72
2022/04/26 13:57:57;;;;;;;4.90;4.50;;;;;;;14.54;54.69;100911.97;4970101;28;20215;-72
2022/04/26 14:00:25;;;;;;;7.80;4.03;;;;;;;14.59;53.88;100916.97;4970749;28;20232;-73
2022/04/26 14:02:51;;;;;;;4.23;3.67;;;;;;;14.63;53.37;100907.75;4970360;28;20238;-71
2022/04/26 14:05:20;;;;;;;4.80;4.10;;;;;;;14.69;53.27;100911.78;4973556;28;20224;-72
2022/04/26 14:07:47;;;;;;;5.07;4.40;;;;;;;14.74;52.79;100912.28;4964379;28;20204;-72
2022/04/26 14:10:14;;;;;;;4.40;4.00;;;;;;;14.79;52.22;100910.09;4958743;28;20237;-75
2022/04/26 14:12:41;;;;;;;4.17;3.83;;;;;;;14.83;51.69;100912.44;4959820;28;20227;-74
2022/04/26 14:23:26;;;;;;;3.50;3.20;;;;;;;15.16;51.42;100918.84;4962901;28;20264;-76
2022/04/26 14:25:53;;;;;;;3.70;3.40;;;;;;;15.20;51.24;100917.63;4961285;28;20210;-75
2022/04/26 14:28:19;;;;;;;5.80;4.27;;;;;;;15.28;51.49;100915.19;4963398;28;20216;-75
2022/04/26 14:30:45;;;;;;;3.90;3.60;;;;;;;15.35;51.21;100915.56;4963035;28;20229;-75
2022/04/26 14:33:14;;;;;;;4.30;3.60;;;;;;;15.37;50.89;100917.16;4962797;28;20208;-76
2022/04/26 14:35:41;;;;;;;4.33;3.90;;;;;;;15.41;51.22;100918.59;4963726;28;20220;-75
2022/04/26 14:38:10;;;;;;;4.53;4.13;;;;;;;15.44;50.57;100917.50;4966657;28;20212;-76
2022/04/26 14:40:37;;;;;;;5.27;4.50;;;;;;;15.46;50.57;100920.94;4975635;28;20242;-75
2022/04/26 14:43:04;;;;;;;4.53;3.63;;;;;;;15.48;50.80;100927.03;4970337;28;20213;-75
2022/04/26 14:45:32;;;;;;;5.43;4.47;;;;;;;15.51;51.40;100933.03;4966769;28;20984;-75
2022/04/26 14:48:00;;;;;;;5.00;4.07;;;;;;;15.55;51.87;100936.31;4970378;28;20641;-76
2022/04/26 14:50:30;;;;;;;5.10;4.60;;;;;;;15.59;51.91;100938.66;4968925;28;20284;-75
2022/04/26 14:52:56;;;;;;;4.90;4.40;;;;;;;15.60;51.80;100931.44;4965290;28;20202;-75
2022/04/26 14:55:23;;;;;;;5.90;5.10;;;;;;;15.60;51.70;100934.13;4969140;28;20202;-76
2022/04/26 14:57:49;;;;;;;5.33;4.83;;;;;;;15.61;51.69;100941.22;4969657;28;20236;-75
2022/04/26 15:00:17;;;;;;;7.17;5.50;;;;;;;15.59;51.50;100937.78;4968760;28;20281;-76
2022/04/26 15:02:43;;;;;;;6.00;5.50;;;;;;;15.58;51.93;100928.91;4969602;28;20771;-76
2022/04/26 15:05:11;;;;;;;9.37;5.37;;;;;;;15.59;52.14;100927.06;4969965;28;20229;-74
2022/04/26 15:10:24;;;;;;;5.90;5.00;;;;;;;15.61;51.91;100919.72;4964886;28;20237;-75
2022/04/26 15:18:22;;;;;;;4.87;4.47;;;;;;;15.59;51.96;100929.75;4965565;28;20691;-75
2022/04/26 15:20:51;;;;;;;5.93;4.63;;;;;;;15.58;51.85;100936.13;4974129;28;20309;-74
2022/04/26 15:23:20;;;;;;;4.67;3.57;;;;;;;15.55;51.35;100931.84;4971823;28;20209;-76
2022/04/26 15:25:50;;;;;;;4.70;3.47;;;;;;;15.53;50.84;100930.22;4975689;28;20240;-75
2022/04/26 15:28:18;;;;;;;4.10;3.80;;;;;;;15.48;50.96;100930.56;4975533;28;20258;-74
2022/04/26 15:30:45;;;;;;;4.53;4.13;;;;;;;15.45;51.29;100930.81;4975939;28;20244;-76
2022/04/26 15:33:12;;;;;;;4.37;3.93;;;;;;;15.45;51.50;100932.63;4975293;28;20311;-76
2022/04/26 15:35:38;;;;;;;5.03;4.10;;;;;;;15.43;51.45;100938.13;4975808;28;20209;-75
2022/04/26 15:38:05;;;;;;;6.47;3.97;;;;;;;15.42;51.64;100936.41;4974967;28;20209;-76
2022/04/26 15:40:34;;;;;;;4.67;3.80;;;;;;;15.40;51.69;100935.72;4971644;28;20236;-75